Time;durP1;ratioP1;P1;durP2;ratioP2;P2;SDS_P1;SDS_P2;PMS_P1;PMS_P2;Temp;Humidity;BMP_temperature;BMP_pressure;BME280_temperature;BME280_humidity;BME280_pressure;Samples;Min_cycle;Max_cycle;Signal;HPM_P1;HPM_P2
2022/09/23 00:00:11;;;;;;;7.10;4.60;;;;;;;;;;5004293;28;20550;-76
2022/09/23 00:02:36;;;;;;;7.25;4.55;;;;;;;;;;5005222;28;20113;-77
2022/09/23 00:05:02;;;;;;;6.70;4.50;;;;;;;;;;5002367;28;20387;-76
2022/09/23 00:07:28;;;;;;;6.45;4.30;;;;;;;;;;5006041;28;20065;-76
2022/09/23 00:09:55;;;;;;;7.28;4.93;;;;;;;;;;5007550;28;20045;-77
2022/09/23 00:12:21;;;;;;;7.88;4.65;;;;;;;;;;5006425;28;21819;-76
2022/09/23 00:14:46;;;;;;;7.38;4.95;;;;;;;;;;4999544;28;20030;-76
2022/09/23 00:17:12;;;;;;;7.38;5.13;;;;;;;;;;5003634;28;20033;-77
2022/09/23 00:19:39;;;;;;;7.85;4.70;;;;;;;;;;5007273;28;20089;-77
2022/09/23 00:22:04;;;;;;;7.13;4.80;;;;;;;;;;5007337;28;20025;-77
2022/09/23 00:24:31;;;;;;;6.43;4.63;;;;;;;;;;5037002;28;20025;-77
2022/09/23 00:26:58;;;;;;;6.60;4.53;;;;;;;;;;5001251;28;20029;-76
2022/09/23 00:29:23;;;;;;;6.72;4.80;;;;;;;;;;4999778;28;20505;-76
2022/09/23 00:31:49;;;;;;;6.57;4.50;;;;;;;;;;5007414;28;20026;-76
2022/09/23 00:34:14;;;;;;;6.90;4.30;;;;;;;;;;5006723;28;20441;-76
2022/09/23 00:36:42;;;;;;;6.93;4.72;;;;;;;;;;5001286;28;20022;-77
2022/09/23 00:39:08;;;;;;;7.63;4.97;;;;;;;;;;5004064;28;20466;-76
2022/09/23 00:41:34;;;;;;;7.57;5.22;;;;;;;;;;5010312;28;20091;-76
2022/09/23 00:44:01;;;;;;;8.57;5.65;;;;;;;;;;5008098;28;20557;-76
2022/09/23 00:46:33;;;;;;;7.13;4.65;;;;;;;;;;5008049;28;20036;-76
2022/09/23 00:49:16;;;;;;;7.75;5.63;;;;;;;;;;5004635;28;20037;-76
2022/09/23 00:51:53;;;;;;;8.25;5.00;;;;;;;;;;5004726;28;20037;-76
2022/09/23 00:54:20;;;;;;;7.45;5.57;;;;;;;;;;5000805;28;20038;-76
2022/09/23 00:56:46;;;;;;;6.93;5.10;;;;;;;;;;5008670;28;20449;-77
2022/09/23 00:59:12;;;;;;;8.70;5.13;;;;;;;;;;5003565;28;20026;-77
2022/09/23 01:01:38;;;;;;;6.90;5.30;;;;;;;;;;5004119;28;20030;-76
2022/09/23 01:04:06;;;;;;;7.35;5.15;;;;;;;;;;5005713;28;20123;-75
2022/09/23 01:06:32;;;;;;;8.60;5.38;;;;;;;;;;5004705;28;20546;-76
2022/09/23 01:08:57;;;;;;;8.65;5.78;;;;;;;;;;5003105;28;20132;-76
2022/09/23 01:11:34;;;;;;;9.13;6.25;;;;;;;;;;5001372;28;20028;-75
2022/09/23 01:14:19;;;;;;;9.48;6.25;;;;;;;;;;5035665;28;20030;-76
2022/09/23 01:16:50;;;;;;;7.78;6.30;;;;;;;;;;5007464;28;20023;-76
2022/09/23 01:19:48;;;;;;;7.18;5.22;;;;;;;;;;5032264;28;20038;-75
2022/09/23 01:22:38;;;;;;;7.63;6.22;;;;;;;;;;5007088;28;20053;-79
2022/09/23 01:25:25;;;;;;;12.18;6.10;;;;;;;;;;5005646;28;20030;-76
2022/09/23 01:28:08;;;;;;;7.28;6.05;;;;;;;;;;5006470;28;20037;-80
2022/09/23 01:30:43;;;;;;;10.43;6.15;;;;;;;;;;5002478;28;20375;-76
2022/09/23 01:33:17;;;;;;;8.68;6.25;;;;;;;;;;5011658;28;20044;-78
2022/09/23 01:36:17;;;;;;;7.65;6.15;;;;;;;;;;5014934;28;20458;-77
2022/09/23 01:39:07;;;;;;;8.82;5.85;;;;;;;;;;5007065;28;20386;-78
2022/09/23 01:41:53;;;;;;;7.22;5.75;;;;;;;;;;5003668;28;20541;-76
2022/09/23 01:44:28;;;;;;;9.52;7.15;;;;;;;;;;5022447;28;20494;-77
2022/09/23 01:47:16;;;;;;;9.05;5.88;;;;;;;;;;5004014;28;20023;-75
2022/09/23 01:49:49;;;;;;;9.35;5.38;;;;;;;;;;5009854;28;20113;-76
2022/09/23 01:52:25;;;;;;;9.57;7.00;;;;;;;;;;5003543;28;20065;-77
2022/09/23 01:54:56;;;;;;;7.93;5.90;;;;;;;;;;5003387;28;20049;-76
2022/09/23 01:57:33;;;;;;;8.25;6.60;;;;;;;;;;5006478;28;20486;-75
2022/09/23 02:00:06;;;;;;;8.43;6.47;;;;;;;;;;5011113;28;20429;-76
2022/09/23 02:02:36;;;;;;;9.57;6.35;;;;;;;;;;5007131;28;20026;-76
2022/09/23 02:05:06;;;;;;;7.68;5.90;;;;;;;;;;5010190;28;20034;-76
2022/09/23 02:07:58;;;;;;;7.43;5.63;;;;;;;;;;5006976;28;20026;-76
2022/09/23 02:10:43;;;;;;;11.15;6.10;;;;;;;;;;5009677;28;20034;-76
2022/09/23 02:13:33;;;;;;;8.43;6.82;;;;;;;;;;5007577;28;20490;-77
2022/09/23 02:16:02;;;;;;;7.68;5.88;;;;;;;;;;5007721;28;20026;-76
2022/09/23 02:18:32;;;;;;;9.55;6.13;;;;;;;;;;5008164;28;20390;-76
2022/09/23 02:21:04;;;;;;;9.13;6.80;;;;;;;;;;5007202;28;20560;-78
2022/09/23 02:23:49;;;;;;;9.43;6.55;;;;;;;;;;5001168;28;20252;-77
2022/09/23 02:26:44;;;;;;;7.80;5.82;;;;;;;;;;5001009;28;20041;-78
2022/09/23 02:29:23;;;;;;;9.00;6.57;;;;;;;;;;5003579;28;20493;-76
2022/09/23 02:32:03;;;;;;;10.00;5.85;;;;;;;;;;5010258;28;20033;-76
2022/09/23 02:34:31;;;;;;;8.50;6.75;;;;;;;;;;5004162;28;20034;-76
2022/09/23 02:37:09;;;;;;;8.43;6.35;;;;;;;;;;5007034;28;20026;-76
2022/09/23 02:39:57;;;;;;;10.57;6.15;;;;;;;;;;5017270;28;20076;-76
2022/09/23 02:42:47;;;;;;;8.25;6.25;;;;;;;;;;5006934;28;20042;-76
2022/09/23 02:45:13;;;;;;;8.10;5.90;;;;;;;;;;5001433;28;20053;-76
2022/09/23 02:47:42;;;;;;;8.93;6.72;;;;;;;;;;5008159;28;20493;-78
2022/09/23 02:50:08;;;;;;;10.02;6.93;;;;;;;;;;5007157;28;20018;-76
2022/09/23 02:52:36;;;;;;;9.88;6.45;;;;;;;;;;5009858;28;20087;-76
2022/09/23 02:55:02;;;;;;;8.90;6.30;;;;;;;;;;5009170;28;20037;-76
2022/09/23 02:57:28;;;;;;;8.50;6.30;;;;;;;;;;5004539;28;20022;-76
2022/09/23 02:59:53;;;;;;;9.48;6.85;;;;;;;;;;5004977;28;20060;-77
2022/09/23 03:02:50;;;;;;;9.95;6.40;;;;;;;;;;5010155;28;20382;-76
2022/09/23 03:05:29;;;;;;;10.80;6.22;;;;;;;;;;5033870;28;20072;-77
2022/09/23 03:08:04;;;;;;;10.02;6.72;;;;;;;;;;5006542;28;20395;-76
2022/09/23 03:10:47;;;;;;;11.07;6.20;;;;;;;;;;5017379;28;20030;-76
2022/09/23 03:13:51;;;;;;;9.73;7.13;;;;;;;;;;5006060;28;20026;-79
2022/09/23 03:16:28;;;;;;;11.60;6.47;;;;;;;;;;5037431;28;20544;-77
2022/09/23 03:19:11;;;;;;;10.10;6.68;;;;;;;;;;5001498;28;20100;-76
2022/09/23 03:21:48;;;;;;;8.68;7.05;;;;;;;;;;5004863;28;20589;-79
2022/09/23 03:24:14;;;;;;;8.65;6.07;;;;;;;;;;5016849;28;20120;-75
2022/09/23 03:26:44;;;;;;;8.38;6.07;;;;;;;;;;5009049;28;20500;-76
2022/09/23 03:29:11;;;;;;;9.07;6.70;;;;;;;;;;5000491;28;20026;-76
2022/09/23 03:31:41;;;;;;;8.45;6.15;;;;;;;;;;5031162;28;20406;-76
2022/09/23 03:34:16;;;;;;;9.65;6.50;;;;;;;;;;5007192;28;20029;-76
2022/09/23 03:37:16;;;;;;;9.20;6.13;;;;;;;;;;5006749;28;20036;-78
2022/09/23 03:39:47;;;;;;;9.75;7.03;;;;;;;;;;5002979;28;20557;-76
2022/09/23 03:42:17;;;;;;;9.45;7.03;;;;;;;;;;5006729;28;20057;-76
2022/09/23 03:44:46;;;;;;;9.13;6.97;;;;;;;;;;5002668;28;20042;-78
2022/09/23 03:47:13;;;;;;;9.50;6.32;;;;;;;;;;5006600;28;20527;-77
2022/09/23 03:49:44;;;;;;;9.68;6.78;;;;;;;;;;5002351;28;20411;-77
2022/09/23 03:52:10;;;;;;;8.80;6.97;;;;;;;;;;5010206;28;20104;-76
2022/09/23 03:54:35;;;;;;;8.73;6.47;;;;;;;;;;5005825;28;20042;-76
2022/09/23 03:57:01;;;;;;;8.98;6.50;;;;;;;;;;5006236;28;20743;-75
2022/09/23 03:59:29;;;;;;;11.02;7.15;;;;;;;;;;5003560;28;20075;-76
2022/09/23 04:01:55;;;;;;;9.40;6.07;;;;;;;;;;5009121;28;20030;-77
2022/09/23 04:04:20;;;;;;;8.98;6.70;;;;;;;;;;5007473;28;20053;-78
2022/09/23 04:06:46;;;;;;;8.85;6.03;;;;;;;;;;5004625;28;20026;-76
2022/09/23 04:09:12;;;;;;;8.73;6.38;;;;;;;;;;5004131;28;20152;-76
2022/09/23 04:11:37;;;;;;;8.60;6.20;;;;;;;;;;5003907;28;20030;-76
2022/09/23 04:14:03;;;;;;;8.77;6.53;;;;;;;;;;5002998;28;20030;-76
2022/09/23 04:16:28;;;;;;;8.02;6.18;;;;;;;;;;5005249;28;20026;-76
2022/09/23 04:18:54;;;;;;;8.68;6.30;;;;;;;;;;5002964;28;20111;-77
2022/09/23 04:21:19;;;;;;;9.52;6.30;;;;;;;;;;5002115;28;20038;-78
2022/09/23 04:23:47;;;;;;;7.38;6.13;;;;;;;;;;5007228;28;20034;-77
2022/09/23 04:26:13;;;;;;;7.97;6.55;;;;;;;;;;5005563;28;20105;-77
2022/09/23 04:28:38;;;;;;;9.85;6.55;;;;;;;;;;5000700;28;20171;-77
2022/09/23 04:31:05;;;;;;;8.88;5.78;;;;;;;;;;5002584;28;20095;-76
2022/09/23 04:33:31;;;;;;;10.23;6.13;;;;;;;;;;4998458;28;20089;-76
2022/09/23 04:35:56;;;;;;;10.57;6.90;;;;;;;;;;5007142;28;20121;-76
2022/09/23 04:38:22;;;;;;;8.10;6.03;;;;;;;;;;5004491;28;20068;-77
2022/09/23 04:40:47;;;;;;;8.50;6.82;;;;;;;;;;5007843;28;20026;-79
2022/09/23 04:43:14;;;;;;;8.13;6.07;;;;;;;;;;5005334;28;20044;-77
2022/09/23 04:45:43;;;;;;;8.07;6.28;;;;;;;;;;5036662;28;20572;-79
2022/09/23 04:48:10;;;;;;;7.63;5.57;;;;;;;;;;5004883;28;20124;-78
2022/09/23 04:50:36;;;;;;;8.32;6.38;;;;;;;;;;5005826;28;20049;-76
2022/09/23 04:53:03;;;;;;;9.65;6.50;;;;;;;;;;5002827;28;20420;-77
2022/09/23 04:55:29;;;;;;;8.65;6.35;;;;;;;;;;5005319;28;20030;-76
2022/09/23 04:57:54;;;;;;;8.48;6.35;;;;;;;;;;4999978;28;20027;-77
2022/09/23 05:00:22;;;;;;;9.65;6.82;;;;;;;;;;5002620;28;21985;-76
2022/09/23 05:02:49;;;;;;;9.05;6.65;;;;;;;;;;4997781;28;20044;-76
2022/09/23 05:05:19;;;;;;;8.05;6.43;;;;;;;;;;5000616;28;20021;-76
2022/09/23 05:07:49;;;;;;;8.80;6.57;;;;;;;;;;5005267;28;20097;-76
2022/09/23 05:10:14;;;;;;;9.35;6.45;;;;;;;;;;5000155;28;20425;-76
2022/09/23 05:12:40;;;;;;;10.80;6.80;;;;;;;;;;4995986;28;20029;-79
2022/09/23 05:15:05;;;;;;;10.10;7.28;;;;;;;;;;5002690;28;20022;-76
2022/09/23 05:17:31;;;;;;;9.82;6.63;;;;;;;;;;5001541;28;20117;-76
2022/09/23 05:19:59;;;;;;;8.73;6.53;;;;;;;;;;4998437;28;20099;-77
2022/09/23 05:22:25;;;;;;;10.75;7.38;;;;;;;;;;4996580;28;20053;-76
2022/09/23 05:24:51;;;;;;;8.73;6.35;;;;;;;;;;4997418;28;20023;-77
2022/09/23 05:27:17;;;;;;;8.30;6.53;;;;;;;;;;5003404;28;20112;-76
2022/09/23 05:29:42;;;;;;;9.07;6.78;;;;;;;;;;4999675;28;20578;-76
2022/09/23 05:32:08;;;;;;;9.63;6.43;;;;;;;;;;5006028;28;20029;-76
2022/09/23 05:34:34;;;;;;;9.35;6.25;;;;;;;;;;4997492;28;20040;-76
2022/09/23 05:36:59;;;;;;;8.85;6.53;;;;;;;;;;4997892;28;20080;-75
2022/09/23 05:39:24;;;;;;;8.95;6.50;;;;;;;;;;5000072;28;20061;-76
2022/09/23 05:41:50;;;;;;;8.30;6.35;;;;;;;;;;4994825;28;20030;-76
2022/09/23 05:44:15;;;;;;;9.45;6.35;;;;;;;;;;5005632;28;20034;-77
2022/09/23 05:46:40;;;;;;;10.60;6.90;;;;;;;;;;5005038;28;20463;-76
2022/09/23 05:49:06;;;;;;;9.00;6.70;;;;;;;;;;5006906;28;20030;-75
2022/09/23 05:51:33;;;;;;;10.00;6.25;;;;;;;;;;5007080;28;20501;-76
2022/09/23 05:54:01;;;;;;;8.98;7.03;;;;;;;;;;5006542;28;20060;-78
2022/09/23 05:56:27;;;;;;;9.23;6.45;;;;;;;;;;5008222;28;20429;-76
2022/09/23 05:58:55;;;;;;;9.93;7.13;;;;;;;;;;5008839;28;20026;-76
2022/09/23 06:01:26;;;;;;;9.10;6.45;;;;;;;;;;5005734;28;20060;-75
2022/09/23 06:03:54;;;;;;;10.02;6.70;;;;;;;;;;5008555;28;20034;-76
2022/09/23 06:06:26;;;;;;;9.13;6.63;;;;;;;;;;5010197;28;20083;-77
2022/09/23 06:08:51;;;;;;;8.73;6.30;;;;;;;;;;5013333;28;20043;-76
2022/09/23 06:11:16;;;;;;;8.00;5.95;;;;;;;;;;5010383;28;20467;-76
2022/09/23 06:13:42;;;;;;;8.68;6.18;;;;;;;;;;5042690;28;20394;-77
2022/09/23 06:16:12;;;;;;;8.40;5.93;;;;;;;;;;5007170;28;20053;-76
2022/09/23 06:18:39;;;;;;;10.82;6.93;;;;;;;;;;5009490;28;20037;-76
2022/09/23 06:21:06;;;;;;;9.07;6.25;;;;;;;;;;5006638;28;20056;-76
2022/09/23 06:23:32;;;;;;;8.13;6.10;;;;;;;;;;5000302;28;20517;-77
2022/09/23 06:26:02;;;;;;;9.55;6.47;;;;;;;;;;5005988;28;20026;-76
2022/09/23 06:28:32;;;;;;;9.55;5.78;;;;;;;;;;5006935;28;20479;-76
2022/09/23 06:31:03;;;;;;;8.88;6.05;;;;;;;;;;5007787;28;20031;-77
2022/09/23 06:33:29;;;;;;;9.60;6.07;;;;;;;;;;5026259;28;20492;-76
2022/09/23 06:35:59;;;;;;;9.30;5.75;;;;;;;;;;5010558;28;20025;-76
2022/09/23 06:38:25;;;;;;;8.60;5.78;;;;;;;;;;5003553;28;20029;-76
2022/09/23 06:40:53;;;;;;;8.82;6.10;;;;;;;;;;5004357;28;20026;-76
2022/09/23 06:43:19;;;;;;;9.30;6.40;;;;;;;;;;5005594;28;20124;-76
2022/09/23 06:45:44;;;;;;;8.25;6.32;;;;;;;;;;5010438;28;20045;-76
2022/09/23 06:48:10;;;;;;;8.38;6.35;;;;;;;;;;5009849;28;20040;-76
2022/09/23 06:50:35;;;;;;;8.77;5.95;;;;;;;;;;5037478;28;20033;-76
2022/09/23 06:53:02;;;;;;;7.60;5.93;;;;;;;;;;5009869;28;20073;-75
2022/09/23 06:55:27;;;;;;;9.50;6.18;;;;;;;;;;5007595;28;20080;-77
2022/09/23 06:57:56;;;;;;;7.97;5.93;;;;;;;;;;5007053;28;20019;-76
2022/09/23 07:00:22;;;;;;;8.07;6.30;;;;;;;;;;5008697;28;20121;-77
2022/09/23 07:02:48;;;;;;;7.55;5.80;;;;;;;;;;5014562;28;20454;-76
2022/09/23 07:05:15;;;;;;;8.55;5.97;;;;;;;;;;5039092;28;20033;-76
2022/09/23 07:07:40;;;;;;;9.80;6.28;;;;;;;;;;5006593;28;20490;-75
2022/09/23 07:10:06;;;;;;;10.02;6.07;;;;;;;;;;5011149;28;20040;-76
2022/09/23 07:12:32;;;;;;;9.25;6.05;;;;;;;;;;5010401;28;20357;-75
2022/09/23 07:14:58;;;;;;;9.75;6.40;;;;;;;;;;5010427;28;20052;-77
2022/09/23 07:17:24;;;;;;;8.90;6.10;;;;;;;;;;5037483;28;20026;-76
2022/09/23 07:19:50;;;;;;;8.02;5.82;;;;;;;;;;5004717;28;20034;-75
2022/09/23 07:22:19;;;;;;;11.23;6.55;;;;;;;;;;5006556;28;20541;-75
2022/09/23 07:24:45;;;;;;;8.77;6.43;;;;;;;;;;5008112;28;20109;-76
2022/09/23 07:27:15;;;;;;;13.93;6.50;;;;;;;;;;5007942;28;20113;-76
2022/09/23 07:29:41;;;;;;;8.40;6.25;;;;;;;;;;5004683;28;20390;-77
2022/09/23 07:32:08;;;;;;;11.23;6.47;;;;;;;;;;5016965;28;20077;-76
2022/09/23 07:34:35;;;;;;;9.18;6.30;;;;;;;;;;5000644;28;20501;-76
2022/09/23 07:37:01;;;;;;;8.40;6.25;;;;;;;;;;5007430;28;20025;-75
2022/09/23 07:39:28;;;;;;;8.40;6.20;;;;;;;;;;5009073;28;20484;-76
2022/09/23 07:41:53;;;;;;;8.27;5.85;;;;;;;;;;5009261;28;20467;-77
2022/09/23 07:44:20;;;;;;;8.80;6.70;;;;;;;;;;5008145;28;20092;-77
2022/09/23 07:46:47;;;;;;;9.43;6.40;;;;;;;;;;5010001;28;20029;-77
2022/09/23 07:49:13;;;;;;;8.98;6.50;;;;;;;;;;5008639;28;20068;-75
2022/09/23 07:51:40;;;;;;;8.20;6.35;;;;;;;;;;5007194;28;20040;-76
2022/09/23 07:54:09;;;;;;;11.52;7.25;;;;;;;;;;5003047;28;20457;-76
2022/09/23 07:56:35;;;;;;;9.50;6.10;;;;;;;;;;5005663;28;20033;-76
2022/09/23 07:59:04;;;;;;;8.50;6.65;;;;;;;;;;5004308;28;20514;-76
2022/09/23 08:01:32;;;;;;;9.23;7.03;;;;;;;;;;5008843;28;20109;-76
2022/09/23 08:04:00;;;;;;;9.68;6.80;;;;;;;;;;5001043;28;20022;-75
2022/09/23 08:06:26;;;;;;;8.55;6.47;;;;;;;;;;5007815;28;20953;-76
2022/09/23 08:08:52;;;;;;;10.45;7.43;;;;;;;;;;5006197;28;20057;-76
2022/09/23 08:11:17;;;;;;;8.50;6.90;;;;;;;;;;5005185;28;20101;-78
2022/09/23 08:13:43;;;;;;;8.82;6.95;;;;;;;;;;5004121;28;20038;-75
2022/09/23 08:16:08;;;;;;;10.90;6.63;;;;;;;;;;5005833;28;20026;-76
2022/09/23 08:18:34;;;;;;;10.93;7.10;;;;;;;;;;5005831;28;20084;-75
2022/09/23 08:20:59;;;;;;;8.57;7.00;;;;;;;;;;5006783;28;21845;-77
2022/09/23 08:23:25;;;;;;;9.52;7.05;;;;;;;;;;5005249;28;20513;-77
2022/09/23 08:25:58;;;;;;;9.80;6.75;;;;;;;;;;5001729;28;20032;-77
2022/09/23 08:28:24;;;;;;;11.60;7.28;;;;;;;;;;5001984;28;20105;-75
2022/09/23 08:30:50;;;;;;;10.88;7.55;;;;;;;;;;4999189;28;20033;-77
2022/09/23 08:33:16;;;;;;;9.70;6.97;;;;;;;;;;5002278;28;20496;-76
2022/09/23 08:35:41;;;;;;;11.00;7.80;;;;;;;;;;4998467;28;20038;-76
2022/09/23 08:38:07;;;;;;;11.48;6.97;;;;;;;;;;5014876;28;20028;-78
2022/09/23 08:40:36;;;;;;;10.77;7.40;;;;;;;;;;5000422;28;20069;-76
2022/09/23 08:43:05;;;;;;;10.38;7.20;;;;;;;;;;5016810;28;20152;-77
2022/09/23 08:45:35;;;;;;;10.77;7.70;;;;;;;;;;5002172;28;20045;-77
2022/09/23 08:48:09;;;;;;;9.05;7.07;;;;;;;;;;5005485;28;20029;-76
2022/09/23 08:50:45;;;;;;;12.23;7.65;;;;;;;;;;5001877;28;20136;-78
2022/09/23 08:53:23;;;;;;;10.70;7.63;;;;;;;;;;5011225;28;20062;-77
2022/09/23 08:55:52;;;;;;;9.50;7.43;;;;;;;;;;5005770;28;20048;-76
2022/09/23 08:58:37;;;;;;;11.07;7.38;;;;;;;;;;5006105;28;20029;-77
2022/09/23 09:01:14;;;;;;;10.50;7.40;;;;;;;;;;5016367;28;20502;-77
2022/09/23 09:03:46;;;;;;;10.07;6.80;;;;;;;;;;5006562;28;20506;-77
2022/09/23 09:06:26;;;;;;;12.15;7.10;;;;;;;;;;5033542;28;20034;-77
2022/09/23 09:08:56;;;;;;;13.40;7.28;;;;;;;;;;5001230;28;20081;-78
2022/09/23 09:11:30;;;;;;;8.50;6.55;;;;;;;;;;4999687;28;20491;-77
2022/09/23 09:14:14;;;;;;;10.75;6.47;;;;;;;;;;5006227;28;20527;-76
2022/09/23 09:17:09;;;;;;;9.05;6.50;;;;;;;;;;4999438;28;20029;-76
2022/09/23 09:19:34;;;;;;;8.75;6.72;;;;;;;;;;5030471;28;20042;-76
2022/09/23 09:22:01;;;;;;;9.52;6.82;;;;;;;;;;5006984;28;20096;-76
2022/09/23 09:24:33;;;;;;;10.27;6.70;;;;;;;;;;5004233;28;20034;-76
2022/09/23 09:27:11;;;;;;;10.43;6.55;;;;;;;;;;5006344;28;20325;-78
2022/09/23 09:29:41;;;;;;;9.68;6.20;;;;;;;;;;5001573;28;20041;-76
2022/09/23 09:32:21;;;;;;;9.60;6.55;;;;;;;;;;5004777;28;20030;-77
2022/09/23 09:34:53;;;;;;;7.45;5.60;;;;;;;;;;5005166;28;20033;-76
2022/09/23 09:37:43;;;;;;;11.80;7.43;;;;;;;;;;5003610;28;20029;-76
2022/09/23 09:40:13;;;;;;;8.82;6.25;;;;;;;;;;5008513;28;20034;-77
2022/09/23 09:42:41;;;;;;;10.35;6.25;;;;;;;;;;5007463;28;20090;-77
2022/09/23 09:45:39;;;;;;;12.20;7.03;;;;;;;;;;5005669;28;20478;-76
2022/09/23 09:48:16;;;;;;;10.10;6.60;;;;;;;;;;5001956;28;20445;-76
2022/09/23 09:50:43;;;;;;;10.95;6.47;;;;;;;;;;5006105;28;20193;-76
2022/09/23 09:53:20;;;;;;;10.90;7.18;;;;;;;;;;5006472;28;20084;-76
2022/09/23 09:56:05;;;;;;;11.60;6.97;;;;;;;;;;5010316;28;20509;-79
2022/09/23 09:58:47;;;;;;;12.93;6.97;;;;;;;;;;5001822;28;20037;-77
2022/09/23 10:01:33;;;;;;;10.68;6.88;;;;;;;;;;5010006;28;20460;-76
2022/09/23 10:04:23;;;;;;;12.55;6.90;;;;;;;;;;5033801;28;20616;-79
2022/09/23 10:07:12;;;;;;;11.25;7.68;;;;;;;;;;5008186;28;20057;-78
2022/09/23 10:09:39;;;;;;;12.25;7.18;;;;;;;;;;5001390;28;20034;-76
2022/09/23 10:12:14;;;;;;;12.15;6.97;;;;;;;;;;5006549;28;20527;-76
2022/09/23 10:14:44;;;;;;;13.15;7.13;;;;;;;;;;5009191;28;20036;-77
2022/09/23 10:17:21;;;;;;;11.93;7.65;;;;;;;;;;5013524;28;20053;-77
2022/09/23 10:19:59;;;;;;;9.90;6.55;;;;;;;;;;5009880;28;20032;-76
2022/09/23 10:22:28;;;;;;;11.10;5.85;;;;;;;;;;5013679;28;20046;-76
2022/09/23 10:24:58;;;;;;;11.60;6.22;;;;;;;;;;5011108;28;20029;-75
2022/09/23 10:27:33;;;;;;;11.90;6.57;;;;;;;;;;5012231;28;20037;-76
2022/09/23 10:30:13;;;;;;;12.40;6.20;;;;;;;;;;5012287;28;20030;-76
2022/09/23 10:32:43;;;;;;;9.23;5.72;;;;;;;;;;5012252;28;20034;-75
2022/09/23 10:35:10;;;;;;;12.07;6.28;;;;;;;;;;5012008;28;20030;-76
2022/09/23 10:37:44;;;;;;;10.05;5.60;;;;;;;;;;5009354;28;20030;-76
2022/09/23 10:46:44;;;;;;;10.00;4.88;;;;;;;;;;5013276;28;20177;-76
2022/09/23 10:49:22;;;;;;;9.15;4.80;;;;;;;;;;5010423;28;20548;-75
2022/09/23 10:51:47;;;;;;;10.52;5.00;;;;;;;;;;5006035;28;20026;-75
2022/09/23 10:54:27;;;;;;;10.00;4.50;;;;;;;;;;5010319;28;20398;-78
2022/09/23 10:57:39;;;;;;;9.10;4.88;;;;;;;;;;5042424;28;20022;-75
2022/09/23 11:00:11;;;;;;;9.98;4.57;;;;;;;;;;5013402;28;20786;-75
2022/09/23 11:03:01;;;;;;;9.55;4.88;;;;;;;;;;5012785;28;20022;-75
2022/09/23 11:05:40;;;;;;;9.90;5.00;;;;;;;;;;5006618;28;20040;-75
2022/09/23 11:08:42;;;;;;;10.13;4.60;;;;;;;;;;5007980;28;20022;-76
2022/09/23 11:11:36;;;;;;;6.82;4.47;;;;;;;;;;5037966;28;20022;-76
2022/09/23 11:14:04;;;;;;;;;;;;;;;;;;5016444;28;20032;-76
2022/09/23 11:16:44;;;;;;;8.10;4.30;;;;;;;;;;5011071;28;20412;-75
2022/09/23 11:19:55;;;;;;;7.53;4.32;;;;;;;;;;5011896;28;20121;-76
2022/09/23 11:22:55;;;;;;;6.93;3.92;;;;;;;;;;5012696;28;20933;-76
2022/09/23 11:25:35;;;;;;;7.70;4.25;;;;;;;;;;5010618;28;20029;-75
2022/09/23 11:28:28;;;;;;;7.20;4.10;;;;;;;;;;5024464;28;20548;-75
2022/09/23 11:31:13;;;;;;;;;;;;;;;;;;5009460;28;20032;-76
2022/09/23 11:34:29;;;;;;;7.72;3.60;;;;;;;;;;5011781;28;20389;-76
2022/09/23 11:37:11;;;;;;;6.55;3.85;;;;;;;;;;5007404;28;20028;-76
2022/09/23 11:39:50;;;;;;;8.13;4.05;;;;;;;;;;5004528;28;20024;-75
2022/09/23 11:42:29;;;;;;;8.98;3.95;;;;;;;;;;5013187;28;20107;-75
2022/09/23 11:44:59;;;;;;;9.48;3.80;;;;;;;;;;5009252;28;20028;-76
2022/09/23 11:47:42;;;;;;;6.07;3.90;;;;;;;;;;5007841;28;20025;-75
2022/09/23 11:50:18;;;;;;;7.22;3.47;;;;;;;;;;5009795;28;20037;-77
2022/09/23 11:53:00;;;;;;;7.18;3.08;;;;;;;;;;5008699;28;20026;-75
2022/09/23 11:55:34;;;;;;;6.20;3.47;;;;;;;;;;5011008;28;20040;-75
2022/09/23 11:58:07;;;;;;;6.15;3.22;;;;;;;;;;5010100;28;20030;-76
2022/09/23 12:00:37;;;;;;;6.13;3.13;;;;;;;;;;5009754;28;20026;-76
2022/09/23 12:03:32;;;;;;;7.80;3.78;;;;;;;;;;5011184;28;20474;-76
2022/09/23 12:06:10;;;;;;;6.43;3.65;;;;;;;;;;5011555;28;20057;-76
2022/09/23 12:08:36;;;;;;;5.57;3.45;;;;;;;;;;5001333;28;20032;-76
2022/09/23 12:11:14;;;;;;;5.10;3.10;;;;;;;;;;5004013;28;20113;-77
2022/09/23 12:14:13;;;;;;;5.72;3.20;;;;;;;;;;4997927;28;20064;-76
2022/09/23 12:17:17;;;;;;;4.90;2.58;;;;;;;;;;5001566;28;20041;-75
2022/09/23 12:19:50;;;;;;;6.30;3.55;;;;;;;;;;5009095;28;20022;-76
2022/09/23 12:22:23;;;;;;;4.97;2.90;;;;;;;;;;5005482;28;20552;-77
2022/09/23 12:25:09;;;;;;;4.28;2.83;;;;;;;;;;5009389;28;20095;-77
2022/09/23 12:27:49;;;;;;;5.22;2.47;;;;;;;;;;5004951;28;20051;-76
2022/09/23 12:30:20;;;;;;;5.35;2.90;;;;;;;;;;5003161;28;20441;-77
2022/09/23 12:32:46;;;;;;;4.80;2.90;;;;;;;;;;5002304;28;20402;-76
2022/09/23 12:35:24;;;;;;;5.45;2.95;;;;;;;;;;4997927;28;20026;-77
2022/09/23 12:37:50;;;;;;;5.60;2.83;;;;;;;;;;5002861;28;20117;-78
2022/09/23 12:40:33;;;;;;;5.10;2.90;;;;;;;;;;5002155;28;20542;-79
2022/09/23 12:43:00;;;;;;;5.70;3.28;;;;;;;;;;4997115;28;20029;-77
2022/09/23 12:45:32;;;;;;;5.38;3.10;;;;;;;;;;4995222;28;20030;-80
2022/09/23 12:47:59;;;;;;;5.60;3.17;;;;;;;;;;4999876;28;20030;-77
2022/09/23 12:50:51;;;;;;;8.63;3.53;;;;;;;;;;4998231;28;20069;-77
2022/09/23 12:54:13;;;;;;;8.15;3.38;;;;;;;;;;5011799;28;20376;-81
2022/09/23 12:56:38;;;;;;;4.75;3.10;;;;;;;;;;4991645;28;20065;-77
2022/09/23 12:59:24;;;;;;;5.53;3.33;;;;;;;;;;5017682;28;20475;-77
2022/09/23 13:01:50;;;;;;;7.15;3.85;;;;;;;;;;5008027;28;20038;-76
2022/09/23 13:07:28;;;;;;;6.32;3.55;;;;;;;;;;4995801;28;20085;-77
2022/09/23 13:10:14;;;;;;;6.28;3.63;;;;;;;;;;5001029;28;20995;-76
2022/09/23 13:12:42;;;;;;;6.28;3.28;;;;;;;;;;5007641;28;20026;-77
2022/09/23 13:15:27;;;;;;;9.05;3.97;;;;;;;;;;5024031;28;20128;-77
2022/09/23 13:18:22;;;;;;;7.30;3.80;;;;;;;;;;5035358;28;20025;-77
2022/09/23 13:20:53;;;;;;;7.80;4.05;;;;;;;;;;5030809;28;20136;-76
2022/09/23 13:23:26;;;;;;;8.60;4.28;;;;;;;;;;5007661;28;20417;-76
2022/09/23 13:26:00;;;;;;;9.27;4.18;;;;;;;;;;5009877;28;20068;-76
2022/09/23 13:28:31;;;;;;;8.38;3.90;;;;;;;;;;5017917;28;20033;-76
2022/09/23 13:30:57;;;;;;;7.97;4.40;;;;;;;;;;5012480;28;20036;-76
2022/09/23 13:33:39;;;;;;;7.40;3.55;;;;;;;;;;5006406;28;20101;-77
2022/09/23 13:36:11;;;;;;;6.60;4.10;;;;;;;;;;5005573;28;20442;-77
2022/09/23 13:38:36;;;;;;;9.93;3.97;;;;;;;;;;5004093;28;20030;-76
2022/09/23 13:41:08;;;;;;;7.13;3.88;;;;;;;;;;5005262;28;20034;-76
2022/09/23 13:43:41;;;;;;;7.75;3.67;;;;;;;;;;5007971;28;20030;-79
2022/09/23 13:46:20;;;;;;;6.63;3.83;;;;;;;;;;5001850;28;20069;-76
2022/09/23 13:48:47;;;;;;;5.57;3.63;;;;;;;;;;5008218;28;20038;-76
2022/09/23 13:51:33;;;;;;;7.93;3.80;;;;;;;;;;5008962;28;20040;-77
2022/09/23 13:54:01;;;;;;;5.55;3.28;;;;;;;;;;5007293;28;20113;-76
2022/09/23 13:56:29;;;;;;;5.07;3.30;;;;;;;;;;5005827;28;20474;-77
2022/09/23 13:59:22;;;;;;;13.18;3.83;;;;;;;;;;5004619;28;20489;-76
2022/09/23 14:01:47;;;;;;;6.75;3.45;;;;;;;;;;4998485;28;20486;-77
2022/09/23 14:04:24;;;;;;;5.50;3.45;;;;;;;;;;5002712;28;20041;-76
2022/09/23 14:06:50;;;;;;;7.93;4.10;;;;;;;;;;5009123;28;20057;-77
2022/09/23 14:09:17;;;;;;;5.40;3.60;;;;;;;;;;5005904;28;20057;-76
2022/09/23 14:11:43;;;;;;;6.28;3.42;;;;;;;;;;5005510;28;20714;-76
2022/09/23 14:14:13;;;;;;;6.65;3.22;;;;;;;;;;5005904;28;20025;-78
2022/09/23 14:16:40;;;;;;;8.55;3.70;;;;;;;;;;5009510;28;20038;-76
2022/09/23 14:19:08;;;;;;;7.57;3.28;;;;;;;;;;5010996;28;20030;-76
2022/09/23 14:21:36;;;;;;;5.55;3.20;;;;;;;;;;5006185;28;20055;-75
2022/09/23 14:24:22;;;;;;;7.22;3.20;;;;;;;;;;5005166;28;20175;-75
2022/09/23 14:26:55;;;;;;;5.20;3.20;;;;;;;;;;5006928;28;20027;-77
2022/09/23 14:29:27;;;;;;;8.20;3.40;;;;;;;;;;5011402;28;20029;-76
2022/09/23 14:31:55;;;;;;;5.18;3.55;;;;;;;;;;5009778;28;20109;-75
2022/09/23 14:34:45;;;;;;;6.82;3.53;;;;;;;;;;5006543;28;20037;-76
2022/09/23 14:40:28;;;;;;;8.35;3.75;;;;;;;;;;5009910;28;20043;-76
2022/09/23 14:43:07;;;;;;;8.90;3.95;;;;;;;;;;5009889;28;20030;-76
2022/09/23 14:45:36;;;;;;;5.43;3.60;;;;;;;;;;5024635;28;20031;-76
2022/09/23 14:48:23;;;;;;;7.22;4.03;;;;;;;;;;5005834;28;20038;-76
2022/09/23 14:50:56;;;;;;;6.05;4.25;;;;;;;;;;4996531;28;20048;-76
2022/09/23 14:53:21;;;;;;;6.93;4.32;;;;;;;;;;5010823;28;20080;-76
2022/09/23 14:55:51;;;;;;;6.82;4.60;;;;;;;;;;5006983;28;20057;-76
2022/09/23 14:58:25;;;;;;;6.43;4.32;;;;;;;;;;5008580;28;20116;-76
2022/09/23 15:00:56;;;;;;;7.55;4.70;;;;;;;;;;5007275;28;20037;-75
2022/09/23 15:03:22;;;;;;;6.07;4.00;;;;;;;;;;5009061;28;20545;-77
2022/09/23 15:05:49;;;;;;;6.60;4.10;;;;;;;;;;5003388;28;20157;-80
2022/09/23 15:08:20;;;;;;;6.57;4.32;;;;;;;;;;4994716;28;20037;-76
2022/09/23 15:10:47;;;;;;;9.77;4.90;;;;;;;;;;5024344;28;20708;-77
2022/09/23 15:13:35;;;;;;;6.78;4.25;;;;;;;;;;5003959;28;20128;-79
2022/09/23 15:16:02;;;;;;;9.48;4.65;;;;;;;;;;5003502;28;20569;-76
2022/09/23 15:18:32;;;;;;;8.68;4.80;;;;;;;;;;5006698;28;20026;-75
2022/09/23 15:21:07;;;;;;;7.70;4.40;;;;;;;;;;5007140;28;20050;-75
2022/09/23 15:23:49;;;;;;;7.72;4.47;;;;;;;;;;5001961;28;20589;-78
2022/09/23 15:26:16;;;;;;;6.50;3.97;;;;;;;;;;4995266;28;20030;-78